createdAt,value
2018-11-06T00:00:30.395Z,83.47
2018-11-06T00:03:04.505Z,82.17
2018-11-06T00:05:33.789Z,85.07
2018-11-06T00:08:02.992Z,78.80
2018-11-06T00:10:32.756Z,75.87
2018-11-06T00:13:02.040Z,77.03
2018-11-06T00:15:31.261Z,79.20
2018-11-06T00:18:00.437Z,83.73
2018-11-06T00:20:29.903Z,81.43
2018-11-06T00:22:59.729Z,76.90
2018-11-06T00:25:28.956Z,80.67
2018-11-06T00:27:59.017Z,81.50
2018-11-06T00:30:28.667Z,85.27
2018-11-06T00:32:57.606Z,78.27
2018-11-06T00:35:26.438Z,80.87
2018-11-06T00:37:55.417Z,79.77
2018-11-06T00:40:24.275Z,78.20
2018-11-06T00:42:53.287Z,73.47
2018-11-06T00:45:22.249Z,74.20
2018-11-06T00:47:51.237Z,77.00
2018-11-06T00:50:20.268Z,83.03
2018-11-06T00:52:49.203Z,87.53
2018-11-06T00:55:18.077Z,78.93
2018-11-06T00:57:46.954Z,76.33
2018-11-06T01:00:18.038Z,77.50
2018-11-06T01:02:47.250Z,82.47
2018-11-06T01:05:17.328Z,76.77
2018-11-06T01:07:47.953Z,78.73
2018-11-06T01:10:17.104Z,80.63
2018-11-06T01:12:46.043Z,74.83
2018-11-06T01:15:16.117Z,77.43
2018-11-06T01:17:46.275Z,90.67
2018-11-06T01:20:16.801Z,87.27
2018-11-06T01:22:46.002Z,81.20
2018-11-06T01:25:15.423Z,77.57
2018-11-06T01:27:44.210Z,86.70
2018-11-06T01:30:17.300Z,91.03
2018-11-06T01:32:46.827Z,77.77
2018-11-06T01:35:16.321Z,100.10
2018-11-06T01:37:45.827Z,89.53
2018-11-06T01:40:16.931Z,80.63
2018-11-06T01:42:46.725Z,80.57
2018-11-06T01:45:17.063Z,72.93
2018-11-06T01:47:46.059Z,72.40
2018-11-06T01:50:16.138Z,66.90
2018-11-06T01:52:46.173Z,62.20
2018-11-06T01:55:15.201Z,62.93
2018-11-06T01:57:44.207Z,60.87
2018-11-06T02:00:15.318Z,62.17
2018-11-06T02:02:44.318Z,67.97
2018-11-06T02:05:14.254Z,72.20
2018-11-06T02:07:44.501Z,63.60
2018-11-06T02:10:14.263Z,68.33
2018-11-06T02:12:44.080Z,69.97
2018-11-06T02:15:13.004Z,63.13
2018-11-06T02:17:43.375Z,80.00
2018-11-06T02:20:13.350Z,73.97
2018-11-06T02:22:43.418Z,85.17
2018-11-06T02:25:12.852Z,71.87
2018-11-06T02:30:32.441Z,79.10
2018-11-06T02:33:01.388Z,73.27
2018-11-06T02:35:30.344Z,67.37
2018-11-06T02:37:59.302Z,74.23
2018-11-06T02:40:28.209Z,82.83
2018-11-06T02:42:57.110Z,78.57
2018-11-06T02:45:25.927Z,83.57
2018-11-06T02:47:54.889Z,81.53
2018-11-06T02:50:23.815Z,83.63
2018-11-06T02:52:53.312Z,86.40
2018-11-06T02:55:22.319Z,98.57
2018-11-06T02:57:51.234Z,93.07
2018-11-06T03:00:20.196Z,79.10
2018-11-06T03:02:49.079Z,84.57
2018-11-06T03:05:18.031Z,93.13
2018-11-06T03:07:46.880Z,100.20
2018-11-06T03:10:16.177Z,94.80
2018-11-06T03:12:45.594Z,94.07
2018-11-06T03:15:15.458Z,88.73
2018-11-06T03:17:44.919Z,89.70
2018-11-06T03:20:14.656Z,85.83
2018-11-06T03:22:44.126Z,94.40
2018-11-06T03:25:13.082Z,87.83
2018-11-06T03:27:41.972Z,88.77
2018-11-06T03:30:14.016Z,87.97
2018-11-06T03:32:42.942Z,88.33
2018-11-06T03:35:13.210Z,90.90
2018-11-06T03:37:42.430Z,79.20
2018-11-06T03:40:12.806Z,71.50
2018-11-06T03:42:42.803Z,80.97
2018-11-06T03:45:12.549Z,75.83
2018-11-06T03:47:41.551Z,78.37
2018-11-06T03:50:11.993Z,95.23
2018-11-06T03:52:41.008Z,80.67
2018-11-06T03:55:10.095Z,91.63
2018-11-06T03:57:39.240Z,91.80
2018-11-06T04:00:16.124Z,97.90
2018-11-06T04:02:45.482Z,91.07
2018-11-06T04:05:14.783Z,96.93
2018-11-06T04:07:43.702Z,96.30
2018-11-06T04:10:13.459Z,70.03
2018-11-06T04:12:42.900Z,94.37
2018-11-06T04:15:13.267Z,101.97
2018-11-06T04:17:43.084Z,107.60
2018-11-06T04:20:12.085Z,102.90
2018-11-06T04:22:42.077Z,87.10
2018-11-06T04:25:11.235Z,78.30
2018-11-06T04:27:40.176Z,95.17
2018-11-06T04:30:11.349Z,100.97
2018-11-06T04:32:42.627Z,90.73
2018-11-06T04:35:12.105Z,92.17
2018-11-06T04:37:41.752Z,89.97
2018-11-06T04:40:12.605Z,79.80
2018-11-06T04:42:41.490Z,90.20
2018-11-06T04:45:11.502Z,81.10
2018-11-06T04:47:40.381Z,96.13
2018-11-06T04:50:10.622Z,97.07
2018-11-06T04:52:39.524Z,91.73
2018-11-06T04:55:10.100Z,92.17
2018-11-06T04:57:38.925Z,93.60
2018-11-06T05:00:09.948Z,87.13
2018-11-06T05:02:39.075Z,81.03
2018-11-06T05:05:08.941Z,90.33
2018-11-06T05:07:39.012Z,79.47
2018-11-06T05:10:09.801Z,72.50
2018-11-06T05:12:38.902Z,70.73
2018-11-06T05:15:10.144Z,70.60
2018-11-06T05:17:39.215Z,71.87
2018-11-06T05:20:10.789Z,73.17
2018-11-06T05:22:39.586Z,67.20
2018-11-06T05:25:08.983Z,71.30
2018-11-06T05:27:38.200Z,69.20
2018-11-06T05:30:08.181Z,73.43
2018-11-06T05:32:37.296Z,70.13
2018-11-06T05:35:10.214Z,69.03
2018-11-06T05:37:40.989Z,66.70
2018-11-06T05:40:21.195Z,70.73
2018-11-06T05:42:50.677Z,74.37
2018-11-06T05:45:19.550Z,60.10
2018-11-06T05:47:48.852Z,61.03
2018-11-06T05:50:17.760Z,61.63
2018-11-06T05:52:46.744Z,69.47
2018-11-06T05:55:16.880Z,59.57
2018-11-06T05:57:45.744Z,57.70
2018-11-06T06:00:14.987Z,70.03
2018-11-06T06:02:43.951Z,73.40
2018-11-06T06:05:12.803Z,66.53
2018-11-06T06:07:41.672Z,76.03
2018-11-06T06:10:10.613Z,73.67
2018-11-06T06:12:39.849Z,76.10
2018-11-06T06:15:09.557Z,65.83
2018-11-06T06:17:38.442Z,62.70
2018-11-06T06:20:08.837Z,63.77
2018-11-06T06:22:38.601Z,59.00
2018-11-06T06:25:07.985Z,55.17
2018-11-06T06:27:38.370Z,57.23
2018-11-06T06:30:10.432Z,55.47
2018-11-06T06:32:39.432Z,57.87
2018-11-06T06:35:08.531Z,57.50
2018-11-06T06:37:40.966Z,59.93
2018-11-06T06:40:14.109Z,59.80
2018-11-06T06:42:43.535Z,60.13
2018-11-06T06:45:14.423Z,59.47
2018-11-06T06:47:43.281Z,58.43
2018-11-06T06:50:14.508Z,57.00
2018-11-06T06:52:43.959Z,52.20
2018-11-06T06:55:14.097Z,63.87
2018-11-06T06:57:44.001Z,49.97
2018-11-06T07:00:15.291Z,45.13
2018-11-06T07:02:44.259Z,45.40
2018-11-06T07:05:15.087Z,45.80
2018-11-06T07:07:44.703Z,44.40
2018-11-06T07:10:15.473Z,44.17
2018-11-06T07:12:45.427Z,44.30
2018-11-06T07:15:15.534Z,42.03
2018-11-06T07:17:45.334Z,39.37
2018-11-06T07:20:15.691Z,39.07
2018-11-06T07:22:44.681Z,39.13
2018-11-06T07:25:14.565Z,38.80
2018-11-06T07:27:52.152Z,36.97
2018-11-06T07:30:22.905Z,36.17
2018-11-06T07:32:55.620Z,35.60
2018-11-06T07:35:37.251Z,37.93
2018-11-06T07:38:06.943Z,36.03
2018-11-06T07:40:36.620Z,34.93
2018-11-06T07:43:10.351Z,34.13
2018-11-06T07:45:46.082Z,33.80
2018-11-06T07:48:16.584Z,33.53
2018-11-06T07:50:47.359Z,33.57
2018-11-06T07:53:16.552Z,32.60
2018-11-06T07:55:46.942Z,34.70
2018-11-06T07:58:16.260Z,33.77
2018-11-06T08:00:45.455Z,33.13
2018-11-06T08:03:15.536Z,31.90
2018-11-06T08:05:45.619Z,32.47
2018-11-06T08:08:15.478Z,32.00
2018-11-06T08:10:44.547Z,31.17
2018-11-06T08:13:13.564Z,31.07
2018-11-06T08:15:44.666Z,30.03
2018-11-06T08:18:17.248Z,29.30
2018-11-06T08:20:46.670Z,30.07
2018-11-06T08:23:16.425Z,30.80
2018-11-06T08:25:45.410Z,30.90
2018-11-06T08:28:14.373Z,30.30
2018-11-06T08:30:44.312Z,28.97
2018-11-06T08:33:13.262Z,29.77
2018-11-06T08:35:42.218Z,29.70
2018-11-06T08:38:13.826Z,28.43
2018-11-06T08:40:42.957Z,27.30
2018-11-06T08:43:12.081Z,28.53
2018-11-06T08:45:41.126Z,27.60
2018-11-06T08:48:10.736Z,27.20
2018-11-06T08:50:40.378Z,27.07
2018-11-06T08:53:11.585Z,25.60
2018-11-06T08:55:40.688Z,25.67
2018-11-06T08:58:09.877Z,26.83
2018-11-06T09:00:39.200Z,25.60
2018-11-06T09:03:08.178Z,26.80
2018-11-06T09:05:37.287Z,24.60
2018-11-06T09:08:06.614Z,27.17
2018-11-06T09:10:35.579Z,27.03
2018-11-06T09:13:05.703Z,27.83
2018-11-06T09:15:34.706Z,27.47
2018-11-06T09:18:06.480Z,26.73
2018-11-06T09:20:36.824Z,26.97
2018-11-06T09:23:05.758Z,25.03
2018-11-06T09:25:36.616Z,23.47
2018-11-06T09:28:05.679Z,25.67
2018-11-06T09:30:34.710Z,23.73
2018-11-06T09:33:05.176Z,24.57
2018-11-06T09:35:34.088Z,24.33
2018-11-06T09:38:03.260Z,24.40
2018-11-06T09:43:01.206Z,24.57
2018-11-06T09:45:30.246Z,24.30
2018-11-06T09:48:00.507Z,23.63
2018-11-06T09:50:31.633Z,22.80
2018-11-06T09:53:00.795Z,22.63
2018-11-06T09:55:30.724Z,23.50
2018-11-06T09:58:00.074Z,23.43
2018-11-06T10:00:30.534Z,23.53
2018-11-06T10:02:59.531Z,22.93
2018-11-06T10:05:29.171Z,22.70
2018-11-06T10:07:58.281Z,22.90
2018-11-06T10:10:30.836Z,23.00
2018-11-06T10:13:00.119Z,24.33
2018-11-06T10:15:31.257Z,21.13
2018-11-06T10:18:00.717Z,23.23
2018-11-06T10:20:29.764Z,21.90
2018-11-06T10:22:58.931Z,21.63
2018-11-06T10:25:27.816Z,23.30
2018-11-06T10:27:56.977Z,22.57
2018-11-06T10:30:26.490Z,23.70
2018-11-06T10:32:56.290Z,22.83
2018-11-06T10:35:26.823Z,20.87
2018-11-06T10:37:57.091Z,20.47
2018-11-06T10:40:33.002Z,20.37
2018-11-06T10:43:03.160Z,19.73
2018-11-06T10:45:32.744Z,20.13
2018-11-06T10:48:05.625Z,20.00
2018-11-06T10:50:35.351Z,21.07
2018-11-06T10:53:05.288Z,18.73
2018-11-06T10:55:34.263Z,20.60
2018-11-06T10:58:03.247Z,19.97
2018-11-06T11:00:37.693Z,19.67
2018-11-06T11:03:07.721Z,19.23
2018-11-06T11:05:36.730Z,18.33
2018-11-06T11:08:05.989Z,20.37
2018-11-06T11:10:34.923Z,18.73
2018-11-06T11:13:03.948Z,19.00
2018-11-06T11:15:33.242Z,19.50
2018-11-06T11:18:02.432Z,19.47
2018-11-06T11:20:31.340Z,19.40
2018-11-06T11:23:00.240Z,17.50
2018-11-06T11:28:19.351Z,17.77
2018-11-06T11:30:48.366Z,18.07
2018-11-06T11:33:17.334Z,17.70
2018-11-06T11:35:47.130Z,17.60
2018-11-06T11:38:16.414Z,18.60
2018-11-06T11:40:46.366Z,17.10
2018-11-06T11:43:15.273Z,17.20
2018-11-06T11:45:45.895Z,17.00
2018-11-06T11:48:15.703Z,17.20
2018-11-06T11:50:46.492Z,17.40
2018-11-06T11:53:15.415Z,16.23
2018-11-06T11:55:45.816Z,16.90
2018-11-06T11:58:17.258Z,16.57
2018-11-06T12:00:50.739Z,15.90
2018-11-06T12:03:21.435Z,15.63
2018-11-06T12:05:51.986Z,15.23
2018-11-06T12:08:21.833Z,15.63
2018-11-06T12:10:52.089Z,15.27
2018-11-06T12:13:22.088Z,15.23
2018-11-06T12:15:51.843Z,16.13
2018-11-06T12:18:20.966Z,15.43
2018-11-06T12:20:49.907Z,16.43
2018-11-06T12:23:19.062Z,15.50
2018-11-06T12:25:49.012Z,14.47
2018-11-06T12:28:18.731Z,15.17
2018-11-06T12:30:47.683Z,13.70
2018-11-06T12:33:16.729Z,14.03
2018-11-06T12:35:45.715Z,15.03
2018-11-06T12:38:14.952Z,14.20
2018-11-06T12:40:44.199Z,14.20
2018-11-06T12:43:13.569Z,15.10
2018-11-06T12:45:42.661Z,14.10
2018-11-06T12:48:12.847Z,14.10
2018-11-06T12:50:42.288Z,13.90
2018-11-06T12:53:11.761Z,13.10
2018-11-06T12:55:40.804Z,13.77
2018-11-06T12:58:10.516Z,13.33
2018-11-06T13:00:40.281Z,13.47
2018-11-06T13:03:09.620Z,13.43
2018-11-06T13:05:38.494Z,11.90
2018-11-06T13:08:07.620Z,13.27
2018-11-06T13:10:37.015Z,12.07
2018-11-06T13:13:06.785Z,11.53
2018-11-06T13:15:36.243Z,11.20
2018-11-06T13:18:06.232Z,10.67
2018-11-06T13:20:35.601Z,11.30
2018-11-06T13:23:05.134Z,11.53
2018-11-06T13:25:35.447Z,12.00
2018-11-06T13:28:04.819Z,11.60
2018-11-06T13:30:33.778Z,11.13
2018-11-06T13:33:02.912Z,11.83
2018-11-06T13:35:31.887Z,11.50
2018-11-06T13:38:01.182Z,11.80
2018-11-06T13:40:30.527Z,11.60
2018-11-06T13:43:01.064Z,12.73
2018-11-06T13:45:30.395Z,11.63
2018-11-06T13:47:59.739Z,12.10
2018-11-06T13:50:28.640Z,13.50
2018-11-06T13:52:58.025Z,12.87
2018-11-06T13:55:27.019Z,13.70
2018-11-06T13:57:57.128Z,15.10
2018-11-06T14:00:26.129Z,13.93
2018-11-06T14:02:55.715Z,13.17
2018-11-06T14:05:25.232Z,13.33
2018-11-06T14:07:54.992Z,13.40
2018-11-06T14:10:25.330Z,13.90
2018-11-06T14:12:56.881Z,14.40
2018-11-06T14:15:26.901Z,14.03
2018-11-06T14:17:56.886Z,13.23
2018-11-06T14:20:26.409Z,13.83
2018-11-06T14:22:56.394Z,14.73
2018-11-06T14:25:25.469Z,14.87
2018-11-06T14:27:54.462Z,12.73
2018-11-06T14:30:23.633Z,14.03
2018-11-06T14:32:52.546Z,13.63
2018-11-06T14:35:22.888Z,14.23
2018-11-06T14:37:53.329Z,13.53
2018-11-06T14:40:23.639Z,13.33
2018-11-06T14:42:54.143Z,13.20
2018-11-06T14:45:23.182Z,13.43
2018-11-06T14:47:52.241Z,13.93
2018-11-06T14:50:22.685Z,13.80
2018-11-06T14:52:51.518Z,13.60
2018-11-06T14:55:20.396Z,14.60
2018-11-06T14:57:52.332Z,13.90
2018-11-06T15:00:25.009Z,15.63
2018-11-06T15:02:54.821Z,15.63
2018-11-06T15:05:24.574Z,16.17
2018-11-06T15:07:53.400Z,17.50
2018-11-06T15:10:22.470Z,16.30
2018-11-06T15:12:52.042Z,16.13
2018-11-06T15:15:21.238Z,15.53
2018-11-06T15:17:50.258Z,15.70
2018-11-06T15:20:20.818Z,16.27
2018-11-06T15:22:49.861Z,15.57
2018-11-06T15:25:19.992Z,15.97
2018-11-06T15:27:50.403Z,15.83
2018-11-06T15:30:21.002Z,16.97
2018-11-06T15:32:52.488Z,17.50
2018-11-06T15:35:22.291Z,16.83
2018-11-06T15:37:52.256Z,17.23
2018-11-06T15:40:23.211Z,16.47
2018-11-06T15:42:53.388Z,16.97
2018-11-06T15:45:27.183Z,16.97
2018-11-06T15:47:57.458Z,16.17
2018-11-06T15:50:27.935Z,17.00
2018-11-06T15:52:56.954Z,16.23
2018-11-06T15:55:27.327Z,17.63
2018-11-06T15:57:59.677Z,19.07
2018-11-06T16:00:28.596Z,23.23
2018-11-06T16:02:59.736Z,21.20
2018-11-06T16:05:30.309Z,20.83
2018-11-06T16:07:59.748Z,21.20
2018-11-06T16:10:30.489Z,21.13
2018-11-06T16:13:02.605Z,21.80
2018-11-06T16:15:33.895Z,20.30
2018-11-06T16:18:04.588Z,20.17
2018-11-06T16:20:36.572Z,20.47
2018-11-06T16:23:07.259Z,21.00
2018-11-06T16:25:39.073Z,22.70
2018-11-06T16:28:10.592Z,25.47
2018-11-06T16:30:41.871Z,24.47
2018-11-06T16:36:04.657Z,25.03
2018-11-06T16:38:35.027Z,24.30
2018-11-06T16:41:06.092Z,24.97
2018-11-06T16:43:34.996Z,24.10
2018-11-06T16:46:04.007Z,24.03
2018-11-06T16:48:33.485Z,28.13
2018-11-06T16:51:02.526Z,29.67
2018-11-06T16:53:31.616Z,30.83
2018-11-06T16:56:00.494Z,29.17
2018-11-06T16:58:29.546Z,30.37
2018-11-06T17:00:58.671Z,28.70
2018-11-06T17:03:27.866Z,28.50
2018-11-06T17:05:56.962Z,28.67
2018-11-06T17:08:26.247Z,29.53
2018-11-06T17:10:55.640Z,30.53
2018-11-06T17:13:24.844Z,31.53
2018-11-06T17:15:54.929Z,33.40
2018-11-06T17:18:24.122Z,31.70
2018-11-06T17:20:53.590Z,31.43
2018-11-06T17:23:23.196Z,31.70
2018-11-06T17:25:52.515Z,32.97
2018-11-06T17:28:25.905Z,30.63
2018-11-06T17:30:55.866Z,31.57
2018-11-06T17:33:27.016Z,29.93
2018-11-06T17:35:56.201Z,31.90
2018-11-06T17:38:26.318Z,34.00
2018-11-06T17:40:57.024Z,35.43
2018-11-06T17:43:27.719Z,36.93
2018-11-06T17:45:57.402Z,34.43
2018-11-06T17:48:26.966Z,35.90
2018-11-06T17:51:04.377Z,34.00
2018-11-06T17:53:33.812Z,35.17
2018-11-06T17:56:02.668Z,36.67
2018-11-06T17:58:31.688Z,34.77
2018-11-06T18:01:00.584Z,35.37
2018-11-06T18:03:31.150Z,34.27
2018-11-06T18:06:01.073Z,34.30
2018-11-06T18:08:30.081Z,34.60
2018-11-06T18:10:58.968Z,34.67
2018-11-06T18:13:28.109Z,35.17
2018-11-06T18:15:57.209Z,35.37
2018-11-06T18:18:26.196Z,34.87
2018-11-06T18:20:55.040Z,35.83
2018-11-06T18:23:23.959Z,36.17
2018-11-06T18:25:53.015Z,36.60
2018-11-06T18:28:21.969Z,37.13
2018-11-06T18:30:50.936Z,37.23
2018-11-06T18:33:20.027Z,38.03
2018-11-06T18:35:49.040Z,38.57
2018-11-06T18:38:18.279Z,37.30
2018-11-06T18:40:47.238Z,38.13
2018-11-06T18:43:16.063Z,37.70
2018-11-06T18:45:45.079Z,36.67
2018-11-06T18:48:13.994Z,38.73
2018-11-06T18:50:43.047Z,39.27
2018-11-06T18:53:11.853Z,40.03
2018-11-06T18:55:40.841Z,39.40
2018-11-06T18:58:09.903Z,38.90
2018-11-06T19:00:39.122Z,39.07
2018-11-06T19:03:07.923Z,37.83
2018-11-06T19:05:37.144Z,39.57
2018-11-06T19:08:06.587Z,41.50
2018-11-06T19:10:36.991Z,40.43
2018-11-06T19:13:05.956Z,39.87
2018-11-06T19:15:34.996Z,41.40
2018-11-06T19:18:03.975Z,43.07
2018-11-06T19:20:33.706Z,42.50
2018-11-06T19:23:02.638Z,44.37
2018-11-06T19:25:31.607Z,42.70
2018-11-06T19:28:01.018Z,42.37
2018-11-06T19:30:30.249Z,43.47
2018-11-06T19:33:00.404Z,41.93
2018-11-06T19:35:29.640Z,44.30
2018-11-06T19:37:59.067Z,43.57
2018-11-06T19:40:28.662Z,44.17
2018-11-06T19:42:59.420Z,43.67
2018-11-06T19:45:28.813Z,41.97
2018-11-06T19:47:59.795Z,42.83
2018-11-06T19:50:28.902Z,42.57
2018-11-06T19:52:57.999Z,43.33
2018-11-06T19:55:26.865Z,41.27
2018-11-06T19:57:57.853Z,42.47
2018-11-06T20:00:32.347Z,42.93
2018-11-06T20:03:02.461Z,42.90
2018-11-06T20:05:33.633Z,45.93
2018-11-06T20:08:07.250Z,44.40
2018-11-06T20:10:46.103Z,43.87
2018-11-06T20:13:17.642Z,43.87
2018-11-06T20:15:47.693Z,44.77
2018-11-06T20:18:16.908Z,46.87
2018-11-06T20:20:45.911Z,46.90
2018-11-06T20:26:27.651Z,48.63
2018-11-06T20:28:56.591Z,46.27
2018-11-06T20:31:25.540Z,62.90
2018-11-06T20:33:54.792Z,47.30
2018-11-06T20:36:24.258Z,52.13
2018-11-06T20:38:53.677Z,51.53
2018-11-06T20:41:24.396Z,49.43
2018-11-06T20:43:53.616Z,49.17
2018-11-06T20:46:24.661Z,48.50
2018-11-06T20:48:54.309Z,49.57
2018-11-06T20:51:23.533Z,48.23
2018-11-06T20:53:53.192Z,49.20
2018-11-06T20:56:23.808Z,52.67
2018-11-06T20:58:53.074Z,51.20
2018-11-06T21:01:22.277Z,52.73
2018-11-06T21:03:51.629Z,51.57
2018-11-06T21:06:23.155Z,51.87
2018-11-06T21:09:01.771Z,53.03
2018-11-06T21:11:32.508Z,52.57
2018-11-06T21:14:02.253Z,53.03
2018-11-06T21:16:34.737Z,51.90
2018-11-06T21:19:04.242Z,52.27
2018-11-06T21:21:35.190Z,52.30
2018-11-06T21:24:05.858Z,54.57
2018-11-06T21:26:35.379Z,51.73
2018-11-06T21:29:04.744Z,53.60
2018-11-06T21:31:33.923Z,56.73
2018-11-06T21:34:03.179Z,56.67
2018-11-06T21:36:33.494Z,55.67
2018-11-06T21:39:03.158Z,55.30
2018-11-06T21:41:34.010Z,56.63
2018-11-06T21:44:04.207Z,57.60
2018-11-06T21:46:33.220Z,57.93
2018-11-06T21:49:02.762Z,55.40
2018-11-06T21:51:31.836Z,55.90
2018-11-06T21:54:00.828Z,55.33
2018-11-06T21:56:29.808Z,57.27
2018-11-06T21:59:04.073Z,57.90
2018-11-06T22:01:36.664Z,59.30
2018-11-06T22:04:10.662Z,59.20
2018-11-06T22:06:40.392Z,56.73
2018-11-06T22:09:09.935Z,55.60
2018-11-06T22:11:39.768Z,61.20
2018-11-06T22:14:08.738Z,58.03
2018-11-06T22:16:37.812Z,59.60
2018-11-06T22:19:06.829Z,57.97
2018-11-06T22:21:36.794Z,53.23
2018-11-06T22:24:14.674Z,58.90
2018-11-06T22:26:44.971Z,62.90
2018-11-06T22:29:15.436Z,61.80
2018-11-06T22:31:44.916Z,58.43
2018-11-06T22:34:15.379Z,61.17
2018-11-06T22:36:44.594Z,55.40
2018-11-06T22:39:13.556Z,61.07
2018-11-06T22:41:42.622Z,59.73
2018-11-06T22:44:11.799Z,49.37
2018-11-06T22:46:41.097Z,54.70
2018-11-06T22:49:10.206Z,56.43
2018-11-06T22:51:39.575Z,54.03
2018-11-06T22:54:08.484Z,58.20
2018-11-06T22:56:37.548Z,55.77
2018-11-06T22:59:06.858Z,57.90
2018-11-06T23:01:35.957Z,55.73
2018-11-06T23:04:04.832Z,56.07
2018-11-06T23:06:33.921Z,57.97
2018-11-06T23:09:02.879Z,55.17
2018-11-06T23:11:31.809Z,53.70
2018-11-06T23:14:00.632Z,58.43
2018-11-06T23:16:29.555Z,55.00
2018-11-06T23:18:58.424Z,58.33
2018-11-06T23:21:27.578Z,60.90
2018-11-06T23:23:56.521Z,60.67
2018-11-06T23:26:25.745Z,61.10
2018-11-06T23:28:54.597Z,59.53
2018-11-06T23:31:23.509Z,54.47
2018-11-06T23:33:52.468Z,60.70
2018-11-06T23:36:21.529Z,61.67
2018-11-06T23:38:51.106Z,68.33
2018-11-06T23:41:20.536Z,64.50
2018-11-06T23:43:49.520Z,62.77
2018-11-06T23:46:18.682Z,62.13
2018-11-06T23:48:47.630Z,68.67
2018-11-06T23:51:16.484Z,72.57
2018-11-06T23:53:47.034Z,63.43
2018-11-06T23:56:16.573Z,63.87
2018-11-06T23:58:48.313Z,63.67
